createdAt,value
2018-08-06T00:02:27.668Z,2.62
2018-08-06T00:04:55.720Z,7.00
2018-08-06T00:07:23.789Z,3.30
2018-08-06T00:09:51.811Z,5.10
2018-08-06T00:12:19.856Z,3.98
2018-08-06T00:14:47.904Z,5.53
2018-08-06T00:17:15.947Z,2.20
2018-08-06T00:19:43.984Z,5.35
2018-08-06T00:22:12.037Z,3.10
2018-08-06T00:24:40.070Z,2.15
2018-08-06T00:27:08.112Z,2.58
2018-08-06T00:29:36.199Z,4.45
2018-08-06T00:32:04.225Z,3.22
2018-08-06T00:34:32.263Z,4.05
2018-08-06T00:37:00.313Z,2.25
2018-08-06T00:39:28.360Z,2.65
2018-08-06T00:41:56.404Z,3.35
2018-08-06T00:44:24.448Z,3.00
2018-08-06T00:46:52.492Z,3.52
2018-08-06T00:49:20.515Z,4.35
2018-08-06T00:51:48.561Z,2.98
2018-08-06T00:54:16.600Z,2.98
2018-08-06T00:56:44.646Z,2.67
2018-08-06T00:59:12.676Z,2.62
2018-08-06T01:01:40.720Z,4.53
2018-08-06T01:04:08.769Z,3.05
2018-08-06T01:06:36.836Z,5.25
2018-08-06T01:09:07.876Z,2.52
2018-08-06T01:11:36.173Z,2.75
2018-08-06T01:14:04.404Z,2.42
2018-08-06T01:16:32.492Z,6.08
2018-08-06T01:19:00.552Z,4.45
2018-08-06T01:21:28.616Z,2.45
2018-08-06T01:23:56.673Z,2.95
2018-08-06T01:26:24.732Z,2.83
2018-08-06T01:28:52.792Z,3.05
2018-08-06T01:31:20.852Z,2.30
2018-08-06T01:33:48.903Z,3.40
2018-08-06T01:36:16.969Z,3.58
2018-08-06T01:38:45.037Z,3.85
2018-08-06T01:41:13.089Z,3.83
2018-08-06T01:43:41.157Z,3.90
2018-08-06T01:46:09.308Z,2.87
2018-08-06T01:48:37.375Z,3.20
2018-08-06T01:51:05.428Z,2.75
2018-08-06T01:53:33.488Z,3.80
2018-08-06T01:56:01.544Z,6.50
2018-08-06T01:58:29.608Z,3.87
2018-08-06T02:00:57.676Z,2.72
2018-08-06T02:03:25.733Z,2.87
2018-08-06T02:05:53.802Z,3.27
2018-08-06T02:08:21.852Z,4.78
2018-08-06T02:10:49.876Z,3.58
2018-08-06T02:13:17.924Z,4.70
2018-08-06T02:15:45.968Z,3.72
2018-08-06T02:18:14.013Z,2.70
2018-08-06T02:20:42.070Z,4.58
2018-08-06T02:23:10.104Z,2.22
2018-08-06T02:25:38.139Z,3.00
2018-08-06T02:28:06.188Z,3.62
2018-08-06T02:30:34.225Z,3.47
2018-08-06T02:33:02.277Z,2.70
2018-08-06T02:35:30.312Z,3.55
2018-08-06T02:37:58.358Z,2.98
2018-08-06T02:40:26.497Z,4.90
2018-08-06T02:42:54.540Z,4.10
2018-08-06T02:45:22.576Z,3.50
2018-08-06T02:47:50.617Z,4.00
2018-08-06T02:50:18.661Z,5.12
2018-08-06T02:52:46.718Z,2.42
2018-08-06T02:55:15.784Z,6.70
2018-08-06T02:57:43.827Z,3.70
2018-08-06T03:00:13.994Z,7.53
2018-08-06T03:02:43.008Z,3.58
2018-08-06T03:05:13.036Z,2.95
2018-08-06T03:07:42.056Z,3.15
2018-08-06T03:10:10.205Z,2.47
2018-08-06T03:12:38.172Z,3.47
2018-08-06T03:15:07.112Z,3.77
2018-08-06T03:17:35.204Z,4.95
2018-08-06T03:20:03.292Z,2.85
2018-08-06T03:22:31.325Z,4.30
2018-08-06T03:24:59.367Z,4.80
2018-08-06T03:27:27.425Z,3.30
2018-08-06T03:29:55.468Z,4.28
2018-08-06T03:32:23.508Z,3.87
2018-08-06T03:34:51.556Z,6.60
2018-08-06T03:37:19.604Z,2.92
2018-08-06T03:39:47.644Z,3.35
2018-08-06T03:42:15.692Z,3.00
2018-08-06T03:44:43.724Z,3.25
2018-08-06T03:47:11.772Z,2.70
2018-08-06T03:49:39.607Z,4.70
2018-08-06T03:52:07.780Z,2.67
2018-08-06T03:54:35.820Z,3.08
2018-08-06T03:57:03.648Z,6.03
2018-08-06T03:59:31.688Z,10.68
2018-08-06T04:01:59.532Z,3.72
2018-08-06T04:04:27.625Z,3.42
2018-08-06T04:06:55.697Z,5.35
2018-08-06T04:09:23.760Z,5.50
2018-08-06T04:11:51.816Z,5.05
2018-08-06T04:14:19.880Z,2.45
2018-08-06T04:16:47.940Z,3.47
2018-08-06T04:19:16.003Z,3.90
2018-08-06T04:21:44.192Z,4.42
2018-08-06T04:24:12.260Z,7.00
2018-08-06T04:26:40.326Z,5.95
2018-08-06T04:29:08.380Z,3.50
2018-08-06T04:31:36.928Z,3.10
2018-08-06T04:34:05.237Z,4.22
2018-08-06T04:36:34.020Z,4.28
2018-08-06T04:39:02.103Z,6.95
2018-08-06T04:41:30.175Z,4.90
2018-08-06T04:43:58.232Z,3.30
2018-08-06T04:46:26.291Z,3.42
2018-08-06T04:48:54.600Z,5.90
2018-08-06T04:51:22.836Z,5.55
2018-08-06T04:53:51.540Z,3.70
2018-08-06T04:56:19.820Z,6.97
2018-08-06T04:58:47.880Z,10.03
2018-08-06T05:01:15.939Z,4.72
2018-08-06T05:03:44.075Z,3.50
2018-08-06T05:06:12.099Z,3.90
2018-08-06T05:08:40.150Z,3.37
2018-08-06T05:11:08.184Z,6.55
2018-08-06T05:13:36.271Z,4.75
2018-08-06T05:16:04.292Z,5.50
2018-08-06T05:18:32.343Z,7.92
2018-08-06T05:21:00.376Z,9.13
2018-08-06T05:23:40.329Z,6.42
2018-08-06T05:26:08.616Z,5.85
2018-08-06T05:28:36.811Z,4.10
2018-08-06T05:31:04.859Z,10.82
2018-08-06T05:33:32.912Z,7.62
2018-08-06T05:36:00.953Z,3.50
2018-08-06T05:38:28.992Z,3.75
2018-08-06T05:40:57.028Z,3.20
2018-08-06T05:43:25.064Z,5.12
2018-08-06T05:45:53.121Z,3.75
2018-08-06T05:48:21.243Z,7.65
2018-08-06T05:50:49.216Z,4.40
2018-08-06T05:53:17.272Z,6.45
2018-08-06T05:55:45.309Z,3.12
2018-08-06T05:58:13.400Z,6.45
2018-08-06T06:00:41.407Z,4.08
2018-08-06T06:03:09.492Z,6.10
2018-08-06T06:05:37.496Z,6.05
2018-08-06T06:08:05.821Z,9.30
2018-08-06T06:10:33.868Z,4.62
2018-08-06T06:13:01.905Z,4.50
2018-08-06T06:15:29.947Z,4.40
2018-08-06T06:17:58.128Z,4.35
2018-08-06T06:20:26.199Z,11.43
2018-08-06T06:22:54.232Z,7.25
2018-08-06T06:25:22.268Z,6.80
2018-08-06T06:27:50.309Z,6.10
2018-08-06T06:30:18.348Z,5.55
2018-08-06T06:32:46.428Z,3.37
2018-08-06T06:35:14.687Z,4.08
2018-08-06T06:37:42.872Z,8.73
2018-08-06T06:40:10.920Z,3.58
2018-08-06T06:42:39.016Z,6.47
2018-08-06T06:45:07.725Z,3.93
2018-08-06T06:47:35.872Z,4.27
2018-08-06T06:50:04.324Z,3.63
2018-08-06T06:52:32.365Z,8.20
2018-08-06T06:55:00.529Z,12.60
2018-08-06T06:57:28.848Z,14.87
2018-08-06T06:59:56.941Z,6.87
2018-08-06T07:02:25.256Z,2.90
2018-08-06T07:04:53.856Z,6.43
2018-08-06T07:07:21.903Z,4.43
2018-08-06T07:09:49.968Z,7.50
2018-08-06T07:12:18.012Z,3.50
2018-08-06T07:14:46.189Z,5.53
2018-08-06T07:17:14.224Z,3.73
2018-08-06T07:19:42.268Z,2.73
2018-08-06T07:22:10.300Z,3.10
2018-08-06T07:24:38.356Z,6.27
2018-08-06T07:27:06.388Z,2.40
2018-08-06T07:29:34.444Z,7.03
2018-08-06T07:32:02.528Z,6.30
2018-08-06T07:34:30.568Z,2.60
2018-08-06T07:36:58.949Z,4.30
2018-08-06T07:39:27.072Z,2.50
2018-08-06T07:41:55.060Z,4.70
2018-08-06T07:44:23.108Z,3.47
2018-08-06T07:46:51.148Z,2.30
2018-08-06T07:49:19.635Z,2.17
2018-08-06T07:51:47.619Z,4.77
2018-08-06T07:54:15.664Z,2.63
2018-08-06T07:56:43.716Z,2.90
2018-08-06T07:59:11.755Z,3.80
2018-08-06T08:01:39.792Z,7.60
2018-08-06T08:04:07.840Z,2.50
2018-08-06T08:06:35.912Z,3.87
2018-08-06T08:09:06.245Z,3.07
2018-08-06T08:11:34.304Z,6.20
2018-08-06T08:14:02.369Z,2.67
2018-08-06T08:16:30.448Z,2.67
2018-08-06T08:18:58.556Z,3.57
2018-08-06T08:21:26.655Z,4.90
2018-08-06T08:23:54.716Z,3.20
2018-08-06T08:26:22.828Z,2.73
2018-08-06T08:28:50.900Z,4.43
2018-08-06T08:31:18.964Z,4.30
2018-08-06T08:33:47.048Z,2.50
2018-08-06T08:36:15.113Z,4.10
2018-08-06T08:38:43.205Z,2.80
2018-08-06T08:41:11.260Z,3.70
2018-08-06T08:43:39.364Z,2.40
2018-08-06T08:46:07.436Z,4.27
2018-08-06T08:48:35.545Z,3.10
2018-08-06T08:51:03.612Z,2.33
2018-08-06T08:53:31.676Z,5.03
2018-08-06T08:55:59.734Z,2.10
2018-08-06T08:58:27.800Z,4.70
2018-08-06T09:00:55.870Z,4.23
2018-08-06T09:03:23.945Z,3.53
2018-08-06T09:05:52.019Z,4.43
2018-08-06T09:08:20.093Z,3.20
2018-08-06T09:10:48.182Z,7.60
2018-08-06T09:13:16.241Z,3.80
2018-08-06T09:15:44.329Z,2.70
2018-08-06T09:18:12.402Z,5.43
2018-08-06T09:20:40.448Z,2.73
2018-08-06T09:23:08.516Z,2.50
2018-08-06T09:25:36.582Z,5.97
2018-08-06T09:28:04.799Z,2.77
2018-08-06T09:30:32.872Z,6.00
2018-08-06T09:33:00.936Z,2.40
2018-08-06T09:35:29.009Z,3.47
2018-08-06T09:37:57.111Z,3.83
2018-08-06T09:40:25.343Z,4.80
2018-08-06T09:42:53.637Z,2.97
2018-08-06T09:45:22.431Z,2.60
2018-08-06T09:47:51.533Z,2.27
2018-08-06T09:50:20.340Z,2.90
2018-08-06T09:52:49.475Z,5.40
2018-08-06T09:55:22.548Z,7.03
2018-08-06T09:57:50.945Z,2.47
2018-08-06T10:00:26.244Z,2.40
2018-08-06T10:02:55.225Z,3.13
2018-08-06T10:05:24.220Z,2.60
2018-08-06T10:07:52.343Z,3.80
2018-08-06T10:10:20.383Z,6.57
2018-08-06T10:12:48.564Z,4.43
2018-08-06T10:15:16.864Z,7.17
2018-08-06T10:17:45.772Z,6.00
2018-08-06T10:20:16.332Z,3.07
2018-08-06T10:22:44.356Z,3.20
2018-08-06T10:25:13.363Z,3.50
2018-08-06T10:27:42.220Z,3.30
2018-08-06T10:30:12.942Z,4.30
2018-08-06T10:32:40.940Z,2.70
2018-08-06T10:35:10.548Z,3.13
2018-08-06T10:37:38.748Z,4.30
2018-08-06T10:40:09.892Z,5.43
2018-08-06T10:42:37.936Z,4.33
2018-08-06T10:45:07.228Z,5.50
2018-08-06T10:47:35.289Z,2.77
2018-08-06T10:50:03.764Z,5.20
2018-08-06T10:52:31.809Z,3.67
2018-08-06T10:54:59.868Z,8.43
2018-08-06T10:57:28.284Z,3.07
2018-08-06T10:59:56.320Z,3.10
2018-08-06T11:02:24.517Z,4.60
2018-08-06T11:04:52.575Z,4.17
2018-08-06T11:07:20.652Z,5.20
2018-08-06T11:09:48.692Z,6.90
2018-08-06T11:12:16.753Z,7.23
2018-08-06T11:14:44.788Z,2.93
2018-08-06T11:17:12.873Z,4.83
2018-08-06T11:19:40.908Z,2.97
2018-08-06T11:22:08.951Z,2.87
2018-08-06T11:24:36.992Z,2.83
2018-08-06T11:27:05.213Z,3.23
2018-08-06T11:29:33.248Z,5.47
2018-08-06T11:32:01.336Z,4.80
2018-08-06T11:34:29.344Z,2.73
2018-08-06T11:36:57.407Z,4.73
2018-08-06T11:39:25.464Z,3.87
2018-08-06T11:41:54.296Z,2.97
2018-08-06T11:44:22.348Z,3.00
2018-08-06T11:46:50.409Z,3.87
2018-08-06T11:49:18.452Z,2.73
2018-08-06T11:51:46.488Z,2.67
2018-08-06T11:54:14.531Z,5.80
2018-08-06T11:56:42.711Z,3.23
2018-08-06T11:59:10.628Z,2.90
2018-08-06T12:01:38.695Z,3.90
2018-08-06T12:04:06.745Z,3.27
2018-08-06T12:06:34.801Z,5.00
2018-08-06T12:09:02.857Z,3.70
2018-08-06T12:11:30.896Z,3.17
2018-08-06T12:13:58.928Z,5.50
2018-08-06T12:16:26.976Z,6.93
2018-08-06T12:18:55.008Z,2.90
2018-08-06T12:21:23.071Z,2.90
2018-08-06T12:23:51.108Z,3.60
2018-08-06T12:26:19.177Z,3.63
2018-08-06T12:28:47.185Z,2.83
2018-08-06T12:31:15.240Z,3.63
2018-08-06T12:33:43.280Z,3.10
2018-08-06T12:36:11.315Z,3.57
2018-08-06T12:38:52.483Z,3.70
2018-08-06T12:41:20.527Z,5.80
2018-08-06T12:43:48.560Z,3.30
2018-08-06T12:46:16.647Z,3.67
2018-08-06T12:48:51.088Z,5.73
2018-08-06T12:51:19.130Z,6.40
2018-08-06T12:53:47.183Z,3.10
2018-08-06T12:56:15.224Z,4.90
2018-08-06T12:58:43.267Z,2.60
2018-08-06T13:01:11.300Z,6.40
2018-08-06T13:03:39.340Z,3.30
2018-08-06T13:06:07.403Z,4.20
2018-08-06T13:08:35.467Z,3.80
2018-08-06T13:11:03.520Z,4.20
2018-08-06T13:13:31.585Z,3.87
2018-08-06T13:15:59.644Z,4.17
2018-08-06T13:18:27.708Z,3.17
2018-08-06T13:20:55.755Z,3.30
2018-08-06T13:23:23.813Z,7.50
2018-08-06T13:25:51.868Z,4.10
2018-08-06T13:28:19.951Z,3.40
2018-08-06T13:30:47.998Z,7.43
2018-08-06T13:33:16.050Z,3.93
2018-08-06T13:35:44.112Z,3.30
2018-08-06T13:38:12.176Z,3.83
2018-08-06T13:40:40.296Z,4.30
2018-08-06T13:43:08.380Z,4.03
2018-08-06T13:45:36.441Z,4.47
2018-08-06T13:48:04.526Z,7.50
2018-08-06T13:50:32.576Z,3.60
2018-08-06T13:53:00.691Z,7.03
2018-08-06T13:55:28.701Z,4.30
2018-08-06T13:57:56.776Z,4.43
2018-08-06T14:00:24.845Z,3.50
2018-08-06T14:02:52.909Z,3.80
2018-08-06T14:05:20.976Z,5.17
2018-08-06T14:07:49.524Z,6.63
2018-08-06T14:10:17.912Z,4.13
2018-08-06T14:12:46.103Z,4.30
2018-08-06T14:15:14.344Z,6.17
2018-08-06T14:17:43.002Z,5.50
2018-08-06T14:20:14.775Z,7.00
2018-08-06T14:22:42.824Z,5.37
2018-08-06T14:25:11.443Z,4.13
2018-08-06T14:27:39.524Z,4.07
2018-08-06T14:30:10.662Z,10.73
2018-08-06T14:32:38.753Z,4.10
2018-08-06T14:35:07.061Z,4.03
2018-08-06T14:37:35.128Z,4.63
2018-08-06T14:40:03.172Z,4.97
2018-08-06T14:42:31.257Z,6.77
2018-08-06T14:44:59.325Z,7.07
2018-08-06T14:47:27.388Z,5.30
2018-08-06T14:49:55.448Z,6.00
2018-08-06T14:52:23.519Z,4.83
2018-08-06T14:54:51.580Z,5.33
2018-08-06T14:57:19.647Z,5.00
2018-08-06T14:59:47.758Z,6.00
2018-08-06T15:02:15.815Z,6.27
2018-08-06T15:04:43.873Z,6.57
2018-08-06T15:07:11.945Z,6.13
2018-08-06T15:09:40.012Z,4.70
2018-08-06T15:12:08.124Z,5.40
2018-08-06T15:14:36.192Z,4.90
2018-08-06T15:17:04.296Z,5.20
2018-08-06T15:19:32.320Z,6.23
2018-08-06T15:22:00.428Z,5.37
2018-08-06T15:24:28.529Z,6.33
2018-08-06T15:26:56.588Z,5.70
2018-08-06T15:29:24.683Z,7.37
2018-08-06T15:31:52.563Z,4.67
2018-08-06T15:34:20.635Z,5.30
2018-08-06T15:36:48.692Z,5.60
2018-08-06T15:39:16.808Z,5.20
2018-08-06T15:41:45.041Z,6.27
2018-08-06T15:44:13.332Z,5.60
2018-08-06T15:46:41.397Z,4.80
2018-08-06T15:49:09.460Z,5.20
2018-08-06T15:51:37.398Z,4.67
2018-08-06T15:54:05.396Z,4.73
2018-08-06T15:56:33.490Z,4.30
2018-08-06T15:59:01.544Z,4.43
2018-08-06T16:01:29.632Z,6.77
2018-08-06T16:03:57.758Z,5.20
2018-08-06T16:06:25.778Z,7.80
2018-08-06T16:08:53.840Z,9.17
2018-08-06T16:11:21.936Z,4.57
2018-08-06T16:13:49.992Z,4.80
2018-08-06T16:16:18.044Z,4.73
2018-08-06T16:18:46.123Z,6.17
2018-08-06T16:21:14.185Z,5.87
2018-08-06T16:23:42.251Z,5.03
2018-08-06T16:26:10.312Z,4.60
2018-08-06T16:28:38.409Z,4.77
2018-08-06T16:31:06.471Z,9.33
2018-08-06T16:33:34.548Z,4.70
2018-08-06T16:36:02.616Z,4.87
2018-08-06T16:38:30.717Z,5.23
2018-08-06T16:40:58.771Z,7.50
2018-08-06T16:43:26.843Z,5.30
2018-08-06T16:45:54.903Z,4.70
2018-08-06T16:48:22.977Z,6.23
2018-08-06T16:50:51.032Z,5.30
2018-08-06T16:53:19.116Z,6.40
2018-08-06T16:55:47.211Z,6.70
2018-08-06T16:58:15.300Z,6.23
2018-08-06T17:00:43.375Z,5.10
2018-08-06T17:03:11.445Z,6.90
2018-08-06T17:05:39.512Z,5.40
2018-08-06T17:08:07.569Z,6.57
2018-08-06T17:10:35.652Z,5.80
2018-08-06T17:13:03.725Z,4.90
2018-08-06T17:15:31.772Z,4.67
2018-08-06T17:17:59.812Z,5.37
2018-08-06T17:20:27.868Z,5.30
2018-08-06T17:22:55.911Z,5.00
2018-08-06T17:25:23.983Z,6.17
2018-08-06T17:27:52.085Z,7.17
2018-08-06T17:30:20.135Z,8.70
2018-08-06T17:32:48.172Z,8.63
2018-08-06T17:35:16.539Z,8.57
2018-08-06T17:37:44.624Z,5.87
2018-08-06T17:40:16.488Z,5.87
2018-08-06T17:42:44.603Z,8.50
2018-08-06T17:45:15.705Z,6.60
2018-08-06T17:47:43.796Z,6.77
2018-08-06T17:50:14.213Z,7.77
2018-08-06T17:52:42.679Z,9.57
2018-08-06T17:55:10.714Z,9.80
2018-08-06T17:57:38.752Z,8.10
2018-08-06T18:00:07.833Z,10.10
2018-08-06T18:02:35.915Z,9.03
2018-08-06T18:05:04.340Z,7.10
2018-08-06T18:07:32.431Z,6.83
2018-08-06T18:10:00.485Z,7.77
2018-08-06T18:12:28.533Z,9.30
2018-08-06T18:14:56.587Z,6.90
2018-08-06T18:17:24.624Z,7.20
2018-08-06T18:19:52.668Z,7.13
2018-08-06T18:22:20.704Z,8.47
2018-08-06T18:24:48.780Z,10.33
2018-08-06T18:27:16.861Z,7.27
2018-08-06T18:29:44.929Z,14.40
2018-08-06T18:32:12.969Z,8.00
2018-08-06T18:34:41.026Z,7.33
2018-08-06T18:37:09.065Z,9.93
2018-08-06T18:39:37.189Z,9.47
2018-08-06T18:42:05.233Z,8.73
2018-08-06T18:44:33.395Z,10.67
2018-08-06T18:47:01.436Z,8.00
2018-08-06T18:49:29.523Z,17.17
2018-08-06T18:51:57.582Z,6.67
2018-08-06T18:54:25.611Z,7.80
2018-08-06T18:56:53.676Z,6.90
2018-08-06T18:59:21.720Z,8.57
2018-08-06T19:01:49.765Z,6.60
2018-08-06T19:04:17.813Z,8.63
2018-08-06T19:06:45.896Z,8.40
2018-08-06T19:09:16.304Z,9.43
2018-08-06T19:11:44.628Z,6.43
2018-08-06T19:14:20.416Z,8.03
2018-08-06T19:16:50.013Z,6.80
2018-08-06T19:19:21.707Z,9.30
2018-08-06T19:21:50.380Z,7.97
2018-08-06T19:24:23.926Z,8.20
2018-08-06T19:26:52.084Z,8.00
2018-08-06T19:29:20.208Z,11.83
2018-08-06T19:31:48.273Z,6.70
2018-08-06T19:34:16.639Z,7.00
2018-08-06T19:36:50.216Z,7.87
2018-08-06T19:39:18.072Z,7.00
2018-08-06T19:41:46.332Z,7.00
2018-08-06T19:44:14.402Z,7.77
2018-08-06T19:46:42.481Z,9.43
2018-08-06T19:49:16.037Z,10.30
2018-08-06T19:51:44.195Z,8.03
2018-08-06T19:54:12.500Z,8.03
2018-08-06T19:56:40.553Z,10.30
2018-08-06T19:59:09.664Z,7.37
2018-08-06T20:01:37.723Z,6.40
2018-08-06T20:04:06.360Z,9.07
2018-08-06T20:06:34.436Z,8.43
2018-08-06T20:09:02.556Z,6.50
2018-08-06T20:11:30.741Z,7.70
2018-08-06T20:13:58.808Z,8.10
2018-08-06T20:16:26.872Z,6.62
2018-08-06T20:18:54.936Z,6.92
2018-08-06T20:21:22.859Z,10.53
2018-08-06T20:23:50.921Z,7.47
2018-08-06T20:26:19.009Z,8.95
2018-08-06T20:28:47.052Z,8.88
2018-08-06T20:31:15.108Z,8.38
2018-08-06T20:33:43.147Z,7.95
2018-08-06T20:36:11.424Z,17.02
2018-08-06T20:38:39.502Z,7.70
2018-08-06T20:41:07.587Z,7.05
2018-08-06T20:43:35.635Z,7.30
2018-08-06T20:46:03.692Z,8.58
2018-08-06T20:48:32.054Z,11.75
2018-08-06T20:51:00.069Z,10.60
2018-08-06T20:53:28.148Z,8.55
2018-08-06T20:55:56.205Z,7.53
2018-08-06T20:58:24.305Z,11.48
2018-08-06T21:00:52.415Z,6.78
2018-08-06T21:03:20.467Z,9.20
2018-08-06T21:05:48.529Z,10.85
2018-08-06T21:08:16.573Z,8.03
2018-08-06T21:10:44.627Z,13.40
2018-08-06T21:13:12.676Z,14.43
2018-08-06T21:15:40.744Z,13.50
2018-08-06T21:18:08.776Z,8.38
2018-08-06T21:20:36.820Z,8.25
2018-08-06T21:23:04.864Z,8.58
2018-08-06T21:25:32.912Z,12.73
2018-08-06T21:28:00.965Z,8.25
2018-08-06T21:30:29.047Z,12.68
2018-08-06T21:32:57.655Z,13.98
2018-08-06T21:35:26.968Z,7.80
2018-08-06T21:37:55.573Z,23.45
2018-08-06T21:40:24.468Z,11.45
2018-08-06T21:42:52.764Z,7.85
2018-08-06T21:45:20.948Z,12.25
2018-08-06T21:47:49.344Z,11.88
2018-08-06T21:50:17.400Z,9.88
2018-08-06T21:52:45.620Z,10.08
2018-08-06T21:55:13.675Z,10.75
2018-08-06T21:57:41.736Z,10.80
2018-08-06T22:00:42.344Z,10.65
2018-08-06T22:03:13.666Z,11.30
2018-08-06T22:05:41.804Z,10.50
2018-08-06T22:08:09.973Z,10.90
2018-08-06T22:10:38.012Z,19.37
2018-08-06T22:13:06.545Z,10.38
2018-08-06T22:15:34.592Z,11.10
2018-08-06T22:18:02.652Z,10.03
2018-08-06T22:20:30.701Z,12.80
2018-08-06T22:22:58.828Z,10.63
2018-08-06T22:25:26.869Z,10.05
2018-08-06T22:27:54.950Z,10.25
2018-08-06T22:30:22.993Z,12.20
2018-08-06T22:32:51.051Z,13.48
2018-08-06T22:35:19.084Z,9.88
2018-08-06T22:37:47.148Z,11.55
2018-08-06T22:40:15.259Z,11.93
2018-08-06T22:42:43.248Z,11.50
2018-08-06T22:45:12.251Z,10.48
2018-08-06T22:47:41.168Z,11.30
2018-08-06T22:50:11.092Z,12.20
2018-08-06T22:52:39.592Z,11.20
2018-08-06T22:55:08.483Z,12.13
2018-08-06T22:57:36.540Z,13.15
2018-08-06T23:00:06.395Z,13.72
2018-08-06T23:02:34.396Z,12.15
2018-08-06T23:05:02.444Z,11.63
2018-08-06T23:07:30.543Z,11.78
2018-08-06T23:09:58.608Z,9.30
2018-08-06T23:12:26.684Z,13.35
2018-08-06T23:14:54.776Z,10.93
2018-08-06T23:17:22.844Z,10.03
2018-08-06T23:19:50.715Z,13.72
2018-08-06T23:22:18.788Z,10.65
2018-08-06T23:24:46.848Z,20.75
2018-08-06T23:27:14.912Z,9.58
2018-08-06T23:29:42.972Z,14.30
2018-08-06T23:32:11.048Z,11.53
2018-08-06T23:34:39.103Z,13.28
2018-08-06T23:37:07.176Z,11.50
2018-08-06T23:39:35.256Z,14.25
2018-08-06T23:42:03.401Z,11.80
2018-08-06T23:44:31.467Z,11.75
2018-08-06T23:46:59.561Z,12.07
2018-08-06T23:49:27.591Z,10.63
2018-08-06T23:51:55.672Z,11.68
2018-08-06T23:54:23.785Z,14.05
2018-08-06T23:56:52.105Z,13.70
2018-08-06T23:59:20.163Z,16.77
